Time;durP1;ratioP1;P1;durP2;ratioP2;P2;SDS_P1;SDS_P2;PMS_P1;PMS_P2;Temp;Humidity;BMP_temperature;BMP_pressure;BME280_temperature;BME280_humidity;BME280_pressure;Samples;Min_cycle;Max_cycle;Signal;HPM_P1;HPM_P2
2022/02/20 00:00:08;;;;;;;10.70;7.83;;;;;;;;;;5054064;28;20207;-80
2022/02/20 00:02:35;;;;;;;12.20;5.90;;;;;;;;;;5054109;28;20194;-82
2022/02/20 00:05:02;;;;;;;9.03;4.47;;;;;;;;;;5053696;28;20289;-82
2022/02/20 00:07:30;;;;;;;9.60;4.57;;;;;;;;;;5054861;28;20197;-83
2022/02/20 00:09:57;;;;;;;9.03;4.67;;;;;;;;;;5053868;28;20198;-81
2022/02/20 00:12:26;;;;;;;7.87;4.70;;;;;;;;;;5054717;28;20277;-82
2022/02/20 00:14:53;;;;;;;5.80;3.97;;;;;;;;;;5054003;28;20197;-81
2022/02/20 00:17:20;;;;;;;7.47;5.17;;;;;;;;;;5053777;28;20289;-80
2022/02/20 00:19:48;;;;;;;8.17;5.70;;;;;;;;;;5053843;28;20277;-79
2022/02/20 00:22:15;;;;;;;7.93;5.80;;;;;;;;;;5053447;28;20255;-80
2022/02/20 00:24:42;;;;;;;4.40;4.00;;;;;;;;;;5053498;28;20209;-80
2022/02/20 00:27:10;;;;;;;8.03;4.70;;;;;;;;;;5053990;28;20198;-80
2022/02/20 00:29:39;;;;;;;9.57;4.53;;;;;;;;;;5053510;28;20310;-81
2022/02/20 00:32:06;;;;;;;7.97;5.07;;;;;;;;;;5054706;28;20712;-82
2022/02/20 00:34:34;;;;;;;5.13;4.10;;;;;;;;;;5053906;28;20281;-79
2022/02/20 00:37:01;;;;;;;8.77;4.27;;;;;;;;;;5053958;28;20606;-80
2022/02/20 00:39:31;;;;;;;6.17;4.50;;;;;;;;;;5053945;28;20194;-80
2022/02/20 00:41:58;;;;;;;5.40;4.10;;;;;;;;;;5054461;28;20193;-82
2022/02/20 00:44:26;;;;;;;6.10;4.20;;;;;;;;;;5053778;28;20682;-82
2022/02/20 00:46:54;;;;;;;11.30;5.10;;;;;;;;;;5054185;28;20198;-81
2022/02/20 00:49:22;;;;;;;8.37;4.77;;;;;;;;;;5054272;28;20717;-81
2022/02/20 00:51:49;;;;;;;6.27;4.23;;;;;;;;;;5054251;28;20193;-81
2022/02/20 00:54:16;;;;;;;6.07;4.60;;;;;;;;;;5053680;28;20285;-81
2022/02/20 00:56:43;;;;;;;7.53;3.97;;;;;;;;;;5053610;28;20666;-83
2022/02/20 00:59:10;;;;;;;9.23;4.43;;;;;;;;;;5054244;28;20210;-80
2022/02/20 01:01:38;;;;;;;5.47;3.90;;;;;;;;;;5053260;28;20201;-80
2022/02/20 01:04:06;;;;;;;6.10;4.30;;;;;;;;;;5052941;28;20206;-79
2022/02/20 01:06:34;;;;;;;8.43;4.60;;;;;;;;;;5052303;28;20280;-80
2022/02/20 01:09:01;;;;;;;6.43;4.23;;;;;;;;;;5052789;28;20764;-80
2022/02/20 01:11:28;;;;;;;9.57;4.33;;;;;;;;;;5053372;28;20225;-82
2022/02/20 01:13:55;;;;;;;8.47;4.03;;;;;;;;;;5052538;28;20288;-80
2022/02/20 01:16:23;;;;;;;7.20;3.63;;;;;;;;;;5053059;28;20284;-80
2022/02/20 01:18:50;;;;;;;4.33;3.67;;;;;;;;;;5052233;28;20702;-81
2022/02/20 01:21:19;;;;;;;4.37;3.90;;;;;;;;;;5053112;28;20618;-81
2022/02/20 01:23:46;;;;;;;5.97;3.90;;;;;;;;;;5052364;28;20206;-81
2022/02/20 01:26:13;;;;;;;4.50;3.03;;;;;;;;;;5052576;28;20292;-81
2022/02/20 01:28:40;;;;;;;4.80;3.20;;;;;;;;;;5052231;28;20607;-81
2022/02/20 01:31:08;;;;;;;5.33;3.27;;;;;;;;;;5052792;28;20200;-81
2022/02/20 01:33:35;;;;;;;6.97;3.33;;;;;;;;;;5052115;28;20765;-80
2022/02/20 01:36:02;;;;;;;6.83;3.73;;;;;;;;;;5052724;28;20401;-83
2022/02/20 01:38:31;;;;;;;5.17;3.30;;;;;;;;;;5053013;28;20305;-81
2022/02/20 01:40:58;;;;;;;3.20;2.90;;;;;;;;;;5052365;28;20289;-81
2022/02/20 01:43:25;;;;;;;7.33;3.77;;;;;;;;;;5053153;28;20320;-82
2022/02/20 01:45:54;;;;;;;4.97;3.37;;;;;;;;;;5052656;28;20251;-80
2022/02/20 01:48:21;;;;;;;5.03;3.13;;;;;;;;;;5052617;28;20226;-81
2022/02/20 01:50:48;;;;;;;6.93;3.57;;;;;;;;;;5053008;28;20296;-81
2022/02/20 01:53:16;;;;;;;5.03;3.50;;;;;;;;;;5053735;28;20309;-81
2022/02/20 01:55:44;;;;;;;4.93;3.57;;;;;;;;;;5053545;28;20208;-82
2022/02/20 01:58:11;;;;;;;5.20;3.50;;;;;;;;;;5052773;28;20674;-81
2022/02/20 02:00:39;;;;;;;6.13;3.83;;;;;;;;;;5052244;28;20647;-81
2022/02/20 02:03:06;;;;;;;6.87;4.13;;;;;;;;;;5051727;28;20585;-80
2022/02/20 02:05:34;;;;;;;4.07;3.23;;;;;;;;;;5052150;28;20220;-80
2022/02/20 02:08:01;;;;;;;4.47;3.77;;;;;;;;;;5052168;28;20556;-79
2022/02/20 02:10:28;;;;;;;5.33;3.80;;;;;;;;;;5052182;28;20237;-82
2022/02/20 02:12:57;;;;;;;5.53;4.00;;;;;;;;;;5053413;28;20225;-81
2022/02/20 02:15:24;;;;;;;5.63;3.53;;;;;;;;;;5052438;28;20208;-81
2022/02/20 02:17:52;;;;;;;3.97;3.27;;;;;;;;;;5052837;28;20248;-81
2022/02/20 02:20:19;;;;;;;6.47;4.33;;;;;;;;;;5055941;28;20201;-81
2022/02/20 02:22:47;;;;;;;5.40;3.67;;;;;;;;;;5056490;28;20281;-81
2022/02/20 02:25:15;;;;;;;4.83;3.43;;;;;;;;;;5055842;28;20229;-81
2022/02/20 02:27:42;;;;;;;12.50;4.40;;;;;;;;;;5055938;28;20198;-80
2022/02/20 02:30:11;;;;;;;8.50;5.97;;;;;;;;;;5056183;28;20257;-81
2022/02/20 02:32:38;;;;;;;11.37;6.03;;;;;;;;;;5055941;28;20364;-80
2022/02/20 02:35:07;;;;;;;8.73;7.83;;;;;;;;;;5056215;28;20666;-80
2022/02/20 02:37:34;;;;;;;11.60;7.63;;;;;;;;;;5062855;28;20233;-82
2022/02/20 02:40:03;;;;;;;8.80;5.37;;;;;;;;;;5065936;28;20253;-80
2022/02/20 02:42:30;;;;;;;9.60;5.77;;;;;;;;;;5064287;28;20233;-81
2022/02/20 02:44:57;;;;;;;13.93;9.40;;;;;;;;;;5062475;28;20593;-79
2022/02/20 02:47:25;;;;;;;12.07;7.03;;;;;;;;;;5062799;28;20198;-80
2022/02/20 02:49:52;;;;;;;9.17;6.47;;;;;;;;;;5063932;28;20249;-79
2022/02/20 02:52:19;;;;;;;10.33;5.77;;;;;;;;;;5066577;28;20604;-80
2022/02/20 02:54:47;;;;;;;10.70;6.37;;;;;;;;;;5062983;28;20244;-79
2022/02/20 02:57:16;;;;;;;9.93;6.53;;;;;;;;;;5063803;28;20208;-80
2022/02/20 02:59:43;;;;;;;9.70;5.40;;;;;;;;;;5055872;28;20234;-80
2022/02/20 03:02:10;;;;;;;7.57;5.43;;;;;;;;;;5055312;28;20693;-81
2022/02/20 03:04:37;;;;;;;6.23;4.03;;;;;;;;;;5054996;28;20236;-81
2022/02/20 03:07:05;;;;;;;6.73;4.30;;;;;;;;;;5055414;28;20642;-81
2022/02/20 03:09:34;;;;;;;6.17;4.53;;;;;;;;;;5055402;28;20257;-80
2022/02/20 03:12:01;;;;;;;8.37;5.80;;;;;;;;;;5055595;28;20252;-81
2022/02/20 03:14:31;;;;;;;8.80;5.60;;;;;;;;;;5055903;28;20637;-80
2022/02/20 03:16:59;;;;;;;9.00;5.63;;;;;;;;;;5055837;28;20259;-80
2022/02/20 03:19:26;;;;;;;5.17;4.67;;;;;;;;;;5055058;28;20674;-80
2022/02/20 03:21:53;;;;;;;12.60;4.73;;;;;;;;;;5055355;28;20198;-80
2022/02/20 03:24:20;;;;;;;6.97;3.87;;;;;;;;;;5054603;28;20284;-79
2022/02/20 03:26:48;;;;;;;4.67;3.93;;;;;;;;;;5054909;28;20206;-80
2022/02/20 03:29:15;;;;;;;5.73;4.37;;;;;;;;;;5054653;28;20280;-79
2022/02/20 03:31:44;;;;;;;15.00;10.53;;;;;;;;;;5054667;28;20280;-80
2022/02/20 03:34:11;;;;;;;8.27;5.63;;;;;;;;;;5054767;28;20205;-80
2022/02/20 03:36:38;;;;;;;9.23;6.30;;;;;;;;;;5054503;28;20695;-80
2022/02/20 03:39:05;;;;;;;12.40;8.90;;;;;;;;;;5054142;28;20240;-80
2022/02/20 03:41:33;;;;;;;28.23;19.83;;;;;;;;;;5054461;28;20194;-80
2022/02/20 03:44:00;;;;;;;11.80;8.27;;;;;;;;;;5054043;28;20234;-80
2022/02/20 03:46:27;;;;;;;9.53;6.37;;;;;;;;;;5054312;28;20280;-80
2022/02/20 03:48:56;;;;;;;6.80;4.27;;;;;;;;;;5053747;28;20325;-80
2022/02/20 03:51:23;;;;;;;5.13;4.40;;;;;;;;;;5054563;28;20584;-80
2022/02/20 03:53:50;;;;;;;5.57;3.93;;;;;;;;;;5053949;28;20202;-80
2022/02/20 03:56:18;;;;;;;4.90;3.47;;;;;;;;;;5054120;28;20644;-80
2022/02/20 03:58:45;;;;;;;8.27;3.83;;;;;;;;;;5053663;28;20209;-80
2022/02/20 04:01:12;;;;;;;8.97;3.97;;;;;;;;;;5054077;28;20713;-80
2022/02/20 04:03:41;;;;;;;6.33;3.83;;;;;;;;;;5053868;28;20689;-80
2022/02/20 04:06:10;;;;;;;6.67;4.47;;;;;;;;;;5054339;28;20281;-80
2022/02/20 04:08:37;;;;;;;7.20;3.57;;;;;;;;;;5053411;28;20285;-80
2022/02/20 04:11:04;;;;;;;5.10;3.83;;;;;;;;;;5053863;28;20251;-80
2022/02/20 04:13:31;;;;;;;6.07;4.57;;;;;;;;;;5053690;28;20197;-79
2022/02/20 04:15:59;;;;;;;6.63;4.50;;;;;;;;;;5054127;28;20220;-79
2022/02/20 04:18:26;;;;;;;6.73;4.43;;;;;;;;;;5053350;28;20288;-79
2022/02/20 04:20:53;;;;;;;6.33;3.63;;;;;;;;;;5054298;28;20247;-79
2022/02/20 04:23:23;;;;;;;5.53;4.03;;;;;;;;;;5053518;28;20297;-79
2022/02/20 04:25:50;;;;;;;8.70;4.13;;;;;;;;;;5054191;28;20217;-79
2022/02/20 04:28:18;;;;;;;12.80;6.37;;;;;;;;;;5053451;28;20194;-79
2022/02/20 04:30:45;;;;;;;6.10;5.20;;;;;;;;;;5053184;28;20265;-79
2022/02/20 04:33:12;;;;;;;12.63;7.87;;;;;;;;;;5053907;28;20198;-79
2022/02/20 04:35:39;;;;;;;14.50;12.00;;;;;;;;;;5053327;28;20740;-79
2022/02/20 04:38:07;;;;;;;7.13;4.97;;;;;;;;;;5053371;28;20319;-78
2022/02/20 04:40:35;;;;;;;5.53;3.87;;;;;;;;;;5052934;28;20198;-78
2022/02/20 04:43:03;;;;;;;7.60;4.43;;;;;;;;;;5052438;28;20639;-78
2022/02/20 04:45:30;;;;;;;6.10;3.40;;;;;;;;;;5053176;28;20643;-78
2022/02/20 04:47:57;;;;;;;7.47;4.33;;;;;;;;;;5053452;28;20253;-79
2022/02/20 04:50:24;;;;;;;4.40;3.60;;;;;;;;;;5052780;28;20228;-79
2022/02/20 04:52:52;;;;;;;7.33;3.43;;;;;;;;;;5053766;28;20198;-79
2022/02/20 04:55:19;;;;;;;7.20;3.67;;;;;;;;;;5052858;28;20288;-79
2022/02/20 04:57:48;;;;;;;5.00;3.50;;;;;;;;;;5053329;28;20624;-78
2022/02/20 05:00:16;;;;;;;5.13;3.77;;;;;;;;;;5052486;28;20734;-80
2022/02/20 05:02:43;;;;;;;13.30;7.03;;;;;;;;;;5052905;28;20658;-79
2022/02/20 05:05:10;;;;;;;11.93;9.60;;;;;;;;;;5052627;28;20289;-79
2022/02/20 05:07:38;;;;;;;12.53;9.83;;;;;;;;;;5053060;28;20582;-79
2022/02/20 05:10:06;;;;;;;13.80;10.60;;;;;;;;;;5052289;28;20317;-79
2022/02/20 05:12:33;;;;;;;10.10;7.17;;;;;;;;;;5053026;28;20297;-79
2022/02/20 05:15:02;;;;;;;10.33;8.07;;;;;;;;;;5052881;28;20236;-79
2022/02/20 05:17:29;;;;;;;9.00;5.60;;;;;;;;;;5052928;28;20296;-79
2022/02/20 05:19:56;;;;;;;7.73;4.80;;;;;;;;;;5049557;28;20290;-80
2022/02/20 05:22:23;;;;;;;9.83;4.83;;;;;;;;;;5052245;28;20200;-80
2022/02/20 05:24:52;;;;;;;5.50;4.33;;;;;;;;;;5052426;28;20206;-79
2022/02/20 05:27:19;;;;;;;12.90;6.03;;;;;;;;;;5052254;28;20204;-80
2022/02/20 05:29:46;;;;;;;14.43;8.90;;;;;;;;;;5052038;28;20283;-80
2022/02/20 05:32:23;;;;;;;6.60;5.00;;;;;;;;;;5052027;28;20194;-80
2022/02/20 05:34:51;;;;;;;8.03;5.00;;;;;;;;;;5052166;28;20623;-80
2022/02/20 05:37:18;;;;;;;8.37;4.17;;;;;;;;;;5051984;28;20194;-80
2022/02/20 05:39:46;;;;;;;4.90;4.17;;;;;;;;;;5051612;28;20793;-79
2022/02/20 05:42:13;;;;;;;17.80;5.57;;;;;;;;;;5052033;28;20699;-80
2022/02/20 05:44:40;;;;;;;5.10;3.97;;;;;;;;;;5051743;28;20233;-81
2022/02/20 05:47:08;;;;;;;8.80;4.93;;;;;;;;;;5051823;28;20241;-80
2022/02/20 05:49:36;;;;;;;8.23;4.07;;;;;;;;;;5051370;28;20225;-81
2022/02/20 05:52:04;;;;;;;9.50;5.53;;;;;;;;;;5051610;28;20202;-81
2022/02/20 05:54:31;;;;;;;11.50;5.93;;;;;;;;;;5051568;28;20194;-81
2022/02/20 05:57:00;;;;;;;12.43;8.77;;;;;;;;;;5051749;28;20248;-79
2022/02/20 05:59:27;;;;;;;18.17;14.13;;;;;;;;;;5051190;28;20196;-79
2022/02/20 06:01:54;;;;;;;9.87;6.03;;;;;;;;;;5051640;28;20198;-79
2022/02/20 06:04:21;;;;;;;16.03;9.70;;;;;;;;;;5051532;28;20198;-79
2022/02/20 06:06:50;;;;;;;26.53;21.73;;;;;;;;;;5051768;28;20255;-79
2022/02/20 06:09:17;;;;;;;40.10;31.10;;;;;;;;;;5050975;28;20201;-78
2022/02/20 06:11:45;;;;;;;38.60;24.73;;;;;;;;;;5051938;28;20224;-79
2022/02/20 06:14:12;;;;;;;27.27;21.10;;;;;;;;;;5051824;28;20619;-78
2022/02/20 06:16:39;;;;;;;23.80;15.57;;;;;;;;;;5051757;28;20198;-78
2022/02/20 06:19:06;;;;;;;35.70;22.03;;;;;;;;;;5051458;28;20281;-78
2022/02/20 06:21:33;;;;;;;68.13;42.23;;;;;;;;;;5051532;28;20202;-79
2022/02/20 06:24:02;;;;;;;66.50;44.23;;;;;;;;;;5051412;28;20202;-78
2022/02/20 06:26:29;;;;;;;37.30;23.53;;;;;;;;;;5051424;28;20201;-80
2022/02/20 06:28:56;;;;;;;24.93;16.27;;;;;;;;;;5051501;28;20572;-79
2022/02/20 06:31:24;;;;;;;12.80;9.70;;;;;;;;;;5051528;28;20611;-79
2022/02/20 06:33:52;;;;;;;11.13;7.00;;;;;;;;;;5051365;28;20194;-79
2022/02/20 06:36:20;;;;;;;43.50;35.60;;;;;;;;;;5051664;28;20198;-78
2022/02/20 06:38:47;;;;;;;39.90;26.40;;;;;;;;;;5051524;28;20251;-78
2022/02/20 06:41:16;;;;;;;17.60;12.77;;;;;;;;;;5051625;28;20237;-79
2022/02/20 06:43:43;;;;;;;15.27;10.97;;;;;;;;;;5050973;28;20241;-80
2022/02/20 06:46:10;;;;;;;14.73;9.33;;;;;;;;;;5051606;28;20194;-79
2022/02/20 06:48:37;;;;;;;86.93;77.90;;;;;;;;;;5051685;28;20221;-80
2022/02/20 06:51:05;;;;;;;20.63;17.43;;;;;;;;;;5051245;28;20234;-80
2022/02/20 06:53:32;;;;;;;19.97;17.70;;;;;;;;;;5049034;28;20206;-79
2022/02/20 06:55:59;;;;;;;61.73;32.13;;;;;;;;;;5050948;28;20198;-79
2022/02/20 06:58:28;;;;;;;34.43;25.23;;;;;;;;;;5051366;28;20200;-79
2022/02/20 07:00:55;;;;;;;33.00;28.37;;;;;;;;;;5051007;28;20194;-79
2022/02/20 07:03:22;;;;;;;25.33;16.60;;;;;;;;;;5051236;28;20686;-79
2022/02/20 07:05:49;;;;;;;15.63;11.20;;;;;;;;;;5053396;28;20197;-79
2022/02/20 07:08:16;;;;;;;23.27;16.97;;;;;;;;;;5054867;28;20317;-79
2022/02/20 07:10:43;;;;;;;28.60;19.47;;;;;;;;;;5054548;28;20232;-80
2022/02/20 07:13:11;;;;;;;35.37;21.83;;;;;;;;;;5055069;28;20198;-79
2022/02/20 07:15:39;;;;;;;32.53;20.83;;;;;;;;;;5054499;28;20200;-79
2022/02/20 07:18:07;;;;;;;33.63;18.03;;;;;;;;;;5054927;28;20212;-79
2022/02/20 07:20:34;;;;;;;23.53;16.53;;;;;;;;;;5054356;28;20685;-79
2022/02/20 07:23:01;;;;;;;15.97;11.27;;;;;;;;;;5055045;28;20579;-79
2022/02/20 07:25:28;;;;;;;33.37;25.30;;;;;;;;;;5054436;28;20202;-79
2022/02/20 07:27:56;;;;;;;33.97;27.13;;;;;;;;;;5055046;28;20197;-79
2022/02/20 07:30:27;;;;;;;37.90;27.27;;;;;;;;;;5054114;28;20222;-80
2022/02/20 07:32:56;;;;;;;19.27;15.03;;;;;;;;;;5054578;28;20216;-81
2022/02/20 07:35:23;;;;;;;21.40;17.70;;;;;;;;;;5054021;28;20248;-80
2022/02/20 07:37:51;;;;;;;91.40;52.90;;;;;;;;;;5054125;28;20671;-81
2022/02/20 07:40:18;;;;;;;19.97;15.47;;;;;;;;;;5054594;28;20610;-81
2022/02/20 07:42:46;;;;;;;23.60;17.83;;;;;;;;;;5054442;28;20202;-79
2022/02/20 07:45:13;;;;;;;14.60;10.37;;;;;;;;;;5053678;28;20233;-79
2022/02/20 07:47:51;;;;;;;11.23;7.60;;;;;;;;;;5054555;28;20205;-80
2022/02/20 07:50:21;;;;;;;13.87;7.83;;;;;;;;;;5054127;28;20316;-80
2022/02/20 07:52:48;;;;;;;15.40;9.07;;;;;;;;;;5054662;28;20581;-80
2022/02/20 07:55:16;;;;;;;11.93;8.27;;;;;;;;;;5054045;28;20693;-79
2022/02/20 07:57:44;;;;;;;12.73;9.63;;;;;;;;;;5053796;28;20198;-79
2022/02/20 08:00:12;;;;;;;13.00;9.37;;;;;;;;;;5053242;28;20200;-79
2022/02/20 08:02:40;;;;;;;10.97;7.53;;;;;;;;;;5052921;28;20202;-79
2022/02/20 08:05:08;;;;;;;11.90;8.07;;;;;;;;;;5053509;28;20289;-79
2022/02/20 08:07:37;;;;;;;10.27;7.77;;;;;;;;;;5053413;28;20197;-79
2022/02/20 08:10:04;;;;;;;6.17;5.47;;;;;;;;;;5053324;28;20208;-80
2022/02/20 08:12:31;;;;;;;6.47;4.30;;;;;;;;;;5053389;28;20200;-80
2022/02/20 08:14:59;;;;;;;18.63;13.23;;;;;;;;;;5053697;28;20289;-79
2022/02/20 08:17:26;;;;;;;17.37;14.30;;;;;;;;;;5052845;28;20285;-78
2022/02/20 08:19:53;;;;;;;15.67;11.53;;;;;;;;;;5053480;28;20205;-81
2022/02/20 08:22:21;;;;;;;10.47;7.63;;;;;;;;;;5053833;28;20566;-81
2022/02/20 08:24:50;;;;;;;6.63;5.33;;;;;;;;;;5053472;28;20198;-81
2022/02/20 08:27:17;;;;;;;7.57;5.27;;;;;;;;;;5053984;28;20289;-81
2022/02/20 08:29:45;;;;;;;8.00;5.17;;;;;;;;;;5053269;28;20197;-81
2022/02/20 08:32:12;;;;;;;11.43;6.77;;;;;;;;;;5053350;28;20304;-81
2022/02/20 08:34:39;;;;;;;10.13;6.57;;;;;;;;;;5053070;28;20209;-79
2022/02/20 08:37:06;;;;;;;10.87;7.47;;;;;;;;;;5053799;28;20201;-80
2022/02/20 08:39:35;;;;;;;10.77;7.97;;;;;;;;;;5052876;28;20255;-79
2022/02/20 08:42:04;;;;;;;9.13;6.77;;;;;;;;;;5053307;28;20205;-83
2022/02/20 08:44:34;;;;;;;7.77;5.70;;;;;;;;;;5052937;28;20233;-81
2022/02/20 08:47:02;;;;;;;8.60;5.00;;;;;;;;;;5052891;28;20233;-80
2022/02/20 08:49:29;;;;;;;30.60;22.40;;;;;;;;;;5052685;28;20197;-79
2022/02/20 08:51:57;;;;;;;29.50;21.20;;;;;;;;;;5053210;28;20692;-80
2022/02/20 08:54:24;;;;;;;40.10;24.53;;;;;;;;;;5052828;28;20280;-80
2022/02/20 08:56:51;;;;;;;10.20;7.60;;;;;;;;;;5053255;28;20205;-79
2022/02/20 08:59:20;;;;;;;23.97;13.97;;;;;;;;;;5052394;28;20200;-80
2022/02/20 09:01:47;;;;;;;33.57;19.20;;;;;;;;;;5052893;28;20204;-78
2022/02/20 09:04:14;;;;;;;165.27;61.93;;;;;;;;;;5052516;28;20198;-79
2022/02/20 09:06:41;;;;;;;14.70;10.00;;;;;;;;;;5052561;28;20689;-79
2022/02/20 09:09:08;;;;;;;8.77;6.70;;;;;;;;;;5052564;28;20213;-79
2022/02/20 09:11:37;;;;;;;9.60;5.93;;;;;;;;;;5052435;28;20218;-79
2022/02/20 09:14:04;;;;;;;9.07;7.23;;;;;;;;;;5052924;28;20204;-81
2022/02/20 09:16:33;;;;;;;9.27;6.43;;;;;;;;;;5051681;28;20198;-78
2022/02/20 09:19:03;;;;;;;12.63;7.93;;;;;;;;;;5052054;28;20202;-80
2022/02/20 09:21:31;;;;;;;22.33;11.97;;;;;;;;;;5052488;28;20189;-80
2022/02/20 09:23:58;;;;;;;11.03;5.77;;;;;;;;;;5052245;28;20205;-82
2022/02/20 09:26:26;;;;;;;7.70;5.37;;;;;;;;;;5052401;28;20205;-81
2022/02/20 09:28:53;;;;;;;10.87;6.37;;;;;;;;;;5051687;28;20214;-82
2022/02/20 09:31:20;;;;;;;11.60;7.93;;;;;;;;;;5052383;28;20226;-81
2022/02/20 09:33:49;;;;;;;14.13;8.87;;;;;;;;;;5052532;28;20202;-81
2022/02/20 09:36:16;;;;;;;11.97;6.27;;;;;;;;;;5052004;28;20682;-81
2022/02/20 09:38:43;;;;;;;30.70;16.90;;;;;;;;;;5052191;28;20198;-82
2022/02/20 09:41:11;;;;;;;27.83;15.53;;;;;;;;;;5052216;28;20198;-80
2022/02/20 09:43:40;;;;;;;35.90;19.90;;;;;;;;;;5052002;28;20237;-80
2022/02/20 09:46:08;;;;;;;27.03;16.30;;;;;;;;;;5051860;28;20207;-80
2022/02/20 09:48:36;;;;;;;20.00;11.30;;;;;;;;;;5052356;28;20197;-80
2022/02/20 09:51:05;;;;;;;12.17;7.90;;;;;;;;;;5052414;28;20232;-79
2022/02/20 09:53:35;;;;;;;18.77;13.27;;;;;;;;;;5052124;28;20203;-79
2022/02/20 09:56:02;;;;;;;15.17;9.03;;;;;;;;;;5051979;28;20619;-80
2022/02/20 09:58:29;;;;;;;12.97;8.33;;;;;;;;;;5051824;28;20202;-79
2022/02/20 10:00:58;;;;;;;9.23;6.10;;;;;;;;;;5052151;28;20196;-79
2022/02/20 10:03:33;;;;;;;13.63;10.27;;;;;;;;;;5052241;28;20579;-81
2022/02/20 10:06:02;;;;;;;9.57;6.23;;;;;;;;;;5051713;28;20281;-82
2022/02/20 10:08:38;;;;;;;9.50;6.17;;;;;;;;;;5052386;28;20667;-81
2022/02/20 10:11:15;;;;;;;8.27;6.37;;;;;;;;;;5052299;28;20206;-81
2022/02/20 10:13:43;;;;;;;7.20;5.70;;;;;;;;;;5051841;28;20665;-82
2022/02/20 10:16:22;;;;;;;11.77;8.50;;;;;;;;;;5052059;28;20196;-82
2022/02/20 10:18:50;;;;;;;14.87;7.90;;;;;;;;;;5051744;28;20224;-82
2022/02/20 10:21:19;;;;;;;9.13;6.17;;;;;;;;;;5051920;28;20341;-82
2022/02/20 10:23:48;;;;;;;13.67;6.90;;;;;;;;;;5051779;28;20290;-82
2022/02/20 10:26:17;;;;;;;7.43;5.30;;;;;;;;;;5051868;28;20202;-82
2022/02/20 10:29:06;;;;;;;14.13;11.03;;;;;;;;;;5051905;28;20628;-81
2022/02/20 10:31:47;;;;;;;11.90;8.37;;;;;;;;;;5051960;28;20689;-82
2022/02/20 10:34:16;;;;;;;13.63;6.50;;;;;;;;;;5051967;28;20197;-82
2022/02/20 10:36:51;;;;;;;7.77;6.23;;;;;;;;;;5051613;28;20201;-79
2022/02/20 10:39:25;;;;;;;6.47;5.47;;;;;;;;;;5051579;28;20204;-80
2022/02/20 10:41:53;;;;;;;7.47;5.17;;;;;;;;;;5055872;28;20182;-80
2022/02/20 10:44:20;;;;;;;7.40;5.57;;;;;;;;;;5055218;28;20236;-80
2022/02/20 10:46:48;;;;;;;34.50;24.43;;;;;;;;;;5055633;28;20587;-80
2022/02/20 10:49:28;;;;;;;22.43;16.07;;;;;;;;;;5055506;28;20241;-81
2022/02/20 10:51:56;;;;;;;39.47;25.90;;;;;;;;;;5055580;28;20225;-81
2022/02/20 10:54:25;;;;;;;29.13;20.80;;;;;;;;;;5055134;28;20193;-81
2022/02/20 10:56:53;;;;;;;39.97;28.13;;;;;;;;;;5055816;28;20198;-81
2022/02/20 10:59:21;;;;;;;47.43;29.13;;;;;;;;;;5055142;28;20208;-81
2022/02/20 11:01:49;;;;;;;44.83;28.13;;;;;;;;;;5055020;28;20288;-80
2022/02/20 11:04:17;;;;;;;31.47;19.20;;;;;;;;;;5055239;28;20197;-80
2022/02/20 11:06:47;;;;;;;18.17;14.40;;;;;;;;;;5055362;28;20197;-81
2022/02/20 11:09:16;;;;;;;20.90;14.60;;;;;;;;;;5055130;28;20229;-81
2022/02/20 11:11:49;;;;;;;40.27;24.60;;;;;;;;;;5055528;28;20222;-80
2022/02/20 11:14:18;;;;;;;11.50;8.60;;;;;;;;;;5055143;28;20218;-81
2022/02/20 11:16:47;;;;;;;26.50;19.37;;;;;;;;;;5055025;28;20204;-82
2022/02/20 11:19:16;;;;;;;10.87;8.00;;;;;;;;;;5055352;28;20200;-81
2022/02/20 11:21:44;;;;;;;7.80;6.57;;;;;;;;;;5055134;28;20228;-81
2022/02/20 11:24:12;;;;;;;17.93;11.50;;;;;;;;;;5054554;28;20239;-81
2022/02/20 11:26:42;;;;;;;45.83;29.97;;;;;;;;;;5054790;28;20293;-80
2022/02/20 11:29:11;;;;;;;13.63;10.20;;;;;;;;;;5055017;28;20667;-81
2022/02/20 11:31:40;;;;;;;14.43;9.80;;;;;;;;;;5054849;28;20237;-81
2022/02/20 11:34:08;;;;;;;11.60;8.13;;;;;;;;;;5054728;28;20193;-81
2022/02/20 11:36:36;;;;;;;11.47;7.63;;;;;;;;;;5055011;28;20251;-81
2022/02/20 11:39:08;;;;;;;16.13;13.23;;;;;;;;;;5054531;28;20215;-81
2022/02/20 11:41:36;;;;;;;12.77;8.33;;;;;;;;;;5053581;28;20244;-81
2022/02/20 11:44:15;;;;;;;31.53;22.30;;;;;;;;;;5052868;28;20243;-81
2022/02/20 11:46:50;;;;;;;14.40;10.73;;;;;;;;;;5053710;28;20276;-80
2022/02/20 11:49:26;;;;;;;16.37;14.63;;;;;;;;;;5053502;28;20186;-82
2022/02/20 11:51:59;;;;;;;17.37;14.60;;;;;;;;;;5053634;28;20228;-81
2022/02/20 11:54:27;;;;;;;39.83;30.13;;;;;;;;;;5053266;28;20626;-81
2022/02/20 11:57:22;;;;;;;15.00;8.97;;;;;;;;;;5054747;28;20224;-81
2022/02/20 12:00:16;;;;;;;11.27;7.30;;;;;;;;;;5054378;28;20291;-82
2022/02/20 12:03:06;;;;;;;12.77;9.90;;;;;;;;;;5054324;28;20182;-81
2022/02/20 12:05:35;;;;;;;56.20;39.37;;;;;;;;;;5054341;28;20559;-81
2022/02/20 12:08:06;;;;;;;23.20;17.63;;;;;;;;;;5054378;28;20201;-82
2022/02/20 12:10:35;;;;;;;27.53;21.27;;;;;;;;;;5054427;28;20193;-82
2022/02/20 12:13:29;;;;;;;38.20;30.13;;;;;;;;;;5053833;28;20227;-81
2022/02/20 12:15:58;;;;;;;19.37;16.50;;;;;;;;;;5054098;28;20232;-81
2022/02/20 12:18:28;;;;;;;15.33;10.63;;;;;;;;;;5053866;28;20202;-81
2022/02/20 12:21:16;;;;;;;9.10;7.50;;;;;;;;;;5054137;28;20273;-81
2022/02/20 12:23:54;;;;;;;48.23;34.33;;;;;;;;;;5053615;28;20204;-81
2022/02/20 12:26:46;;;;;;;20.83;14.37;;;;;;;;;;5054120;28;20193;-81
2022/02/20 12:29:15;;;;;;;20.87;15.87;;;;;;;;;;5053727;28;20696;-82
2022/02/20 12:32:17;;;;;;;26.57;19.73;;;;;;;;;;5054127;28;20225;-81
2022/02/20 12:35:05;;;;;;;33.73;25.40;;;;;;;;;;4992181;28;20186;-81
2022/02/20 12:37:34;;;;;;;49.27;33.80;;;;;;;;;;4992382;28;20678;-81
2022/02/20 12:40:06;;;;;;;44.43;29.93;;;;;;;;;;4992281;28;20275;-82
2022/02/20 12:42:37;;;;;;;29.20;19.80;;;;;;;;;;4992381;28;20577;-81
2022/02/20 12:45:08;;;;;;;26.93;21.20;;;;;;;;;;4991741;28;20241;-81
2022/02/20 12:47:39;;;;;;;25.47;17.77;;;;;;;;;;4992265;28;20675;-81
2022/02/20 12:50:08;;;;;;;27.60;16.60;;;;;;;;;;4992305;28;20196;-81
2022/02/20 12:52:37;;;;;;;16.83;11.13;;;;;;;;;;4992331;28;20230;-81
2022/02/20 12:55:06;;;;;;;15.83;11.60;;;;;;;;;;4991759;28;20196;-81
2022/02/20 12:57:36;;;;;;;15.30;11.20;;;;;;;;;;4992236;28;20203;-81
2022/02/20 13:00:10;;;;;;;15.70;11.17;;;;;;;;;;4991696;28;20291;-81
2022/02/20 13:02:41;;;;;;;15.77;11.03;;;;;;;;;;4991491;28;20651;-81
2022/02/20 13:05:13;;;;;;;13.73;10.30;;;;;;;;;;5009460;28;20241;-81
2022/02/20 13:07:43;;;;;;;18.40;12.10;;;;;;;;;;5053377;28;20218;-81
2022/02/20 13:10:13;;;;;;;28.63;21.60;;;;;;;;;;5052969;28;20675;-81
2022/02/20 13:12:41;;;;;;;21.67;15.43;;;;;;;;;;5053196;28;20222;-81
2022/02/20 13:15:10;;;;;;;21.90;12.67;;;;;;;;;;5052731;28;20205;-81
2022/02/20 13:17:47;;;;;;;13.10;9.93;;;;;;;;;;5052865;28;20709;-81
2022/02/20 13:20:33;;;;;;;15.43;10.97;;;;;;;;;;5053037;28;20627;-80
2022/02/20 13:23:14;;;;;;;16.67;10.70;;;;;;;;;;5052272;28;20202;-81
2022/02/20 13:25:41;;;;;;;14.57;9.40;;;;;;;;;;5052634;28;20190;-81
2022/02/20 13:28:13;;;;;;;14.20;10.40;;;;;;;;;;5053050;28;20225;-81
2022/02/20 13:30:40;;;;;;;11.97;8.30;;;;;;;;;;5053002;28;20273;-81
2022/02/20 13:33:10;;;;;;;13.87;8.83;;;;;;;;;;5052695;28;20217;-82
2022/02/20 13:35:38;;;;;;;16.03;9.53;;;;;;;;;;5052569;28;20237;-82
2022/02/20 13:38:07;;;;;;;14.50;9.47;;;;;;;;;;5052843;28;20634;-82
2022/02/20 13:40:38;;;;;;;64.93;35.00;;;;;;;;;;5052282;28;20199;-81
2022/02/20 13:43:07;;;;;;;59.43;34.80;;;;;;;;;;5052703;28;20201;-81
2022/02/20 13:45:36;;;;;;;35.37;21.47;;;;;;;;;;5052322;28;20274;-82
2022/02/20 13:48:04;;;;;;;25.43;18.27;;;;;;;;;;5052408;28;20224;-81
2022/02/20 13:50:32;;;;;;;77.00;47.73;;;;;;;;;;5051904;28;20238;-82
2022/02/20 13:53:00;;;;;;;74.43;47.47;;;;;;;;;;5052100;28;20766;-81
2022/02/20 13:55:29;;;;;;;118.77;81.30;;;;;;;;;;5052040;28;20207;-81
2022/02/20 13:57:57;;;;;;;44.03;31.00;;;;;;;;;;5052369;28;20244;-81
2022/02/20 14:00:25;;;;;;;32.80;24.57;;;;;;;;;;5051846;28;20195;-80
2022/02/20 14:02:52;;;;;;;50.60;34.30;;;;;;;;;;5052019;28;20194;-81
2022/02/20 14:05:25;;;;;;;29.63;20.97;;;;;;;;;;5052004;28;20201;-81
2022/02/20 14:08:03;;;;;;;42.53;25.73;;;;;;;;;;5052387;28;20270;-82
2022/02/20 14:10:30;;;;;;;44.33;29.03;;;;;;;;;;5051780;28;20281;-82
2022/02/20 14:12:57;;;;;;;19.07;13.73;;;;;;;;;;5051957;28;20311;-82
2022/02/20 14:15:35;;;;;;;19.63;15.37;;;;;;;;;;5050903;28;20200;-81
2022/02/20 14:18:05;;;;;;;22.50;16.73;;;;;;;;;;5052317;28;20225;-82
2022/02/20 14:20:33;;;;;;;20.57;18.30;;;;;;;;;;5051566;28;20200;-82
2022/02/20 14:23:11;;;;;;;45.97;36.67;;;;;;;;;;5052102;28;20290;-82
2022/02/20 14:25:39;;;;;;;17.03;12.53;;;;;;;;;;5051865;28;20703;-82
2022/02/20 14:28:06;;;;;;;24.03;18.73;;;;;;;;;;5052130;28;20234;-82
2022/02/20 14:30:37;;;;;;;12.83;11.30;;;;;;;;;;5051444;28;20206;-81
2022/02/20 14:33:09;;;;;;;13.60;11.50;;;;;;;;;;5051840;28;20211;-82
2022/02/20 14:35:38;;;;;;;13.90;11.60;;;;;;;;;;5052068;28;20281;-82
2022/02/20 14:38:08;;;;;;;13.13;9.40;;;;;;;;;;5051808;28;20210;-82
2022/02/20 14:40:36;;;;;;;28.80;18.63;;;;;;;;;;5051468;28;20290;-82